sensor_id;sensor_type;location;lat;lon;timestamp;P1;durP1;ratioP1;P2;durP2;ratioP2
13457;SDS011;6801;53.018;11.560;2022-08-03T00:01:38;2.85;;;1.70;;
13457;SDS011;6801;53.018;11.560;2022-08-03T00:04:06;2.10;;;1.58;;
13457;SDS011;6801;53.018;11.560;2022-08-03T00:06:34;3.20;;;1.35;;
13457;SDS011;6801;53.018;11.560;2022-08-03T00:09:03;1.80;;;1.10;;
13457;SDS011;6801;53.018;11.560;2022-08-03T00:11:31;2.47;;;1.30;;
13457;SDS011;6801;53.018;11.560;2022-08-03T00:13:59;2.08;;;1.38;;
13457;SDS011;6801;53.018;11.560;2022-08-03T00:16:25;1.73;;;1.15;;
13457;SDS011;6801;53.018;11.560;2022-08-03T00:18:52;4.70;;;1.65;;
13457;SDS011;6801;53.018;11.560;2022-08-03T00:21:19;2.65;;;1.63;;
13457;SDS011;6801;53.018;11.560;2022-08-03T00:23:46;10.63;;;2.20;;
13457;SDS011;6801;53.018;11.560;2022-08-03T00:26:15;3.33;;;1.70;;
13457;SDS011;6801;53.018;11.560;2022-08-03T00:28:42;4.40;;;1.83;;
13457;SDS011;6801;53.018;11.560;2022-08-03T00:31:08;6.80;;;1.70;;
13457;SDS011;6801;53.018;11.560;2022-08-03T00:33:35;4.00;;;1.50;;
13457;SDS011;6801;53.018;11.560;2022-08-03T00:36:02;2.60;;;1.58;;
13457;SDS011;6801;53.018;11.560;2022-08-03T00:38:29;3.35;;;1.20;;
13457;SDS011;6801;53.018;11.560;2022-08-03T00:40:56;4.55;;;1.95;;
13457;SDS011;6801;53.018;11.560;2022-08-03T00:43:25;2.22;;;1.50;;
13457;SDS011;6801;53.018;11.560;2022-08-03T00:45:52;3.20;;;1.20;;
13457;SDS011;6801;53.018;11.560;2022-08-03T00:48:19;2.97;;;1.45;;
13457;SDS011;6801;53.018;11.560;2022-08-03T00:50:46;4.40;;;1.50;;
13457;SDS011;6801;53.018;11.560;2022-08-03T00:53:13;1.77;;;1.30;;
13457;SDS011;6801;53.018;11.560;2022-08-03T00:55:41;3.17;;;1.30;;
13457;SDS011;6801;53.018;11.560;2022-08-03T00:58:08;4.32;;;1.88;;
13457;SDS011;6801;53.018;11.560;2022-08-03T01:00:38;7.70;;;2.30;;
13457;SDS011;6801;53.018;11.560;2022-08-03T01:03:05;3.38;;;1.60;;
13457;SDS011;6801;53.018;11.560;2022-08-03T01:05:39;4.40;;;1.70;;
13457;SDS011;6801;53.018;11.560;2022-08-03T01:08:17;2.08;;;1.60;;
13457;SDS011;6801;53.018;11.560;2022-08-03T01:10:51;3.63;;;1.63;;
13457;SDS011;6801;53.018;11.560;2022-08-03T01:13:24;3.63;;;1.75;;
13457;SDS011;6801;53.018;11.560;2022-08-03T01:16:00;2.33;;;1.80;;
13457;SDS011;6801;53.018;11.560;2022-08-03T01:18:34;2.90;;;2.28;;
13457;SDS011;6801;53.018;11.560;2022-08-03T01:21:06;3.50;;;2.15;;
13457;SDS011;6801;53.018;11.560;2022-08-03T01:23:42;4.53;;;1.92;;
13457;SDS011;6801;53.018;11.560;2022-08-03T01:32:20;2.97;;;2.10;;
13457;SDS011;6801;53.018;11.560;2022-08-03T01:34:51;5.20;;;2.47;;
13457;SDS011;6801;53.018;11.560;2022-08-03T01:37:26;5.10;;;1.98;;
13457;SDS011;6801;53.018;11.560;2022-08-03T01:39:57;3.45;;;1.52;;
13457;SDS011;6801;53.018;11.560;2022-08-03T01:42:28;5.00;;;1.77;;
13457;SDS011;6801;53.018;11.560;2022-08-03T01:44:57;2.78;;;1.90;;
13457;SDS011;6801;53.018;11.560;2022-08-03T01:47:26;2.80;;;2.15;;
13457;SDS011;6801;53.018;11.560;2022-08-03T01:49:54;5.55;;;1.80;;
13457;SDS011;6801;53.018;11.560;2022-08-03T01:52:22;3.53;;;1.90;;
13457;SDS011;6801;53.018;11.560;2022-08-03T01:54:51;3.67;;;1.73;;
13457;SDS011;6801;53.018;11.560;2022-08-03T01:57:19;3.27;;;1.93;;
13457;SDS011;6801;53.018;11.560;2022-08-03T01:59:48;2.42;;;1.70;;
13457;SDS011;6801;53.018;11.560;2022-08-03T02:02:18;5.50;;;1.80;;
13457;SDS011;6801;53.018;11.560;2022-08-03T02:04:47;3.70;;;1.95;;
13457;SDS011;6801;53.018;11.560;2022-08-03T02:07:15;2.60;;;1.70;;
13457;SDS011;6801;53.018;11.560;2022-08-03T02:09:43;3.40;;;2.33;;
13457;SDS011;6801;53.018;11.560;2022-08-03T02:12:15;6.50;;;2.20;;
13457;SDS011;6801;53.018;11.560;2022-08-03T02:14:43;4.38;;;2.00;;
13457;SDS011;6801;53.018;11.560;2022-08-03T02:17:12;3.22;;;2.20;;
13457;SDS011;6801;53.018;11.560;2022-08-03T02:19:42;11.65;;;2.60;;
13457;SDS011;6801;53.018;11.560;2022-08-03T02:22:10;3.88;;;2.33;;
13457;SDS011;6801;53.018;11.560;2022-08-03T02:24:38;3.60;;;2.50;;
13457;SDS011;6801;53.018;11.560;2022-08-03T02:27:08;3.63;;;2.30;;
13457;SDS011;6801;53.018;11.560;2022-08-03T02:29:44;6.97;;;2.30;;
13457;SDS011;6801;53.018;11.560;2022-08-03T02:32:24;3.22;;;2.38;;
13457;SDS011;6801;53.018;11.560;2022-08-03T02:34:58;3.90;;;1.98;;
13457;SDS011;6801;53.018;11.560;2022-08-03T02:37:27;6.05;;;2.20;;
13457;SDS011;6801;53.018;11.560;2022-08-03T02:42:26;4.55;;;2.00;;
13457;SDS011;6801;53.018;11.560;2022-08-03T02:44:55;3.90;;;2.08;;
13457;SDS011;6801;53.018;11.560;2022-08-03T02:47:25;2.60;;;1.90;;
13457;SDS011;6801;53.018;11.560;2022-08-03T02:49:54;3.03;;;2.10;;
13457;SDS011;6801;53.018;11.560;2022-08-03T02:52:27;2.33;;;1.50;;
13457;SDS011;6801;53.018;11.560;2022-08-03T02:54:56;5.32;;;2.20;;
13457;SDS011;6801;53.018;11.560;2022-08-03T02:57:26;2.58;;;1.80;;
13457;SDS011;6801;53.018;11.560;2022-08-03T02:59:55;3.78;;;1.70;;
13457;SDS011;6801;53.018;11.560;2022-08-03T03:02:24;5.40;;;1.80;;
13457;SDS011;6801;53.018;11.560;2022-08-03T03:04:51;4.70;;;1.67;;
13457;SDS011;6801;53.018;11.560;2022-08-03T03:07:22;2.70;;;2.03;;
13457;SDS011;6801;53.018;11.560;2022-08-03T03:09:49;3.65;;;1.70;;
13457;SDS011;6801;53.018;11.560;2022-08-03T03:12:17;3.25;;;1.60;;
13457;SDS011;6801;53.018;11.560;2022-08-03T03:14:45;2.30;;;1.90;;
13457;SDS011;6801;53.018;11.560;2022-08-03T03:17:12;3.83;;;1.80;;
13457;SDS011;6801;53.018;11.560;2022-08-03T03:19:41;3.53;;;1.40;;
13457;SDS011;6801;53.018;11.560;2022-08-03T03:22:11;2.60;;;1.60;;
13457;SDS011;6801;53.018;11.560;2022-08-03T03:24:41;6.18;;;2.30;;
13457;SDS011;6801;53.018;11.560;2022-08-03T03:29:37;7.88;;;2.08;;
13457;SDS011;6801;53.018;11.560;2022-08-03T03:32:04;2.75;;;2.00;;
13457;SDS011;6801;53.018;11.560;2022-08-03T03:34:32;4.00;;;2.22;;
13457;SDS011;6801;53.018;11.560;2022-08-03T03:36:59;3.65;;;2.17;;
13457;SDS011;6801;53.018;11.560;2022-08-03T03:39:27;6.05;;;1.55;;
13457;SDS011;6801;53.018;11.560;2022-08-03T03:41:55;3.70;;;1.70;;
13457;SDS011;6801;53.018;11.560;2022-08-03T03:44:25;3.13;;;1.67;;
13457;SDS011;6801;53.018;11.560;2022-08-03T03:46:53;3.65;;;1.70;;
13457;SDS011;6801;53.018;11.560;2022-08-03T03:49:21;3.90;;;1.80;;
13457;SDS011;6801;53.018;11.560;2022-08-03T03:51:48;3.25;;;2.05;;
13457;SDS011;6801;53.018;11.560;2022-08-03T03:56:45;3.22;;;1.88;;
13457;SDS011;6801;53.018;11.560;2022-08-03T03:59:13;2.30;;;1.77;;
13457;SDS011;6801;53.018;11.560;2022-08-03T04:01:40;2.00;;;1.80;;
13457;SDS011;6801;53.018;11.560;2022-08-03T04:04:07;4.28;;;1.98;;
13457;SDS011;6801;53.018;11.560;2022-08-03T04:06:51;2.08;;;1.73;;
13457;SDS011;6801;53.018;11.560;2022-08-03T04:09:36;2.22;;;1.60;;
13457;SDS011;6801;53.018;11.560;2022-08-03T04:12:23;4.78;;;1.67;;
13457;SDS011;6801;53.018;11.560;2022-08-03T04:14:55;4.50;;;1.95;;
13457;SDS011;6801;53.018;11.560;2022-08-03T04:17:24;5.32;;;2.45;;
13457;SDS011;6801;53.018;11.560;2022-08-03T04:19:53;2.88;;;1.30;;
13457;SDS011;6801;53.018;11.560;2022-08-03T04:22:23;4.90;;;2.17;;
13457;SDS011;6801;53.018;11.560;2022-08-03T04:24:52;2.40;;;1.65;;
13457;SDS011;6801;53.018;11.560;2022-08-03T04:27:26;4.03;;;2.00;;
13457;SDS011;6801;53.018;11.560;2022-08-03T04:29:58;3.55;;;2.00;;
13457;SDS011;6801;53.018;11.560;2022-08-03T04:32:28;3.60;;;2.03;;
13457;SDS011;6801;53.018;11.560;2022-08-03T04:34:56;7.75;;;2.10;;
13457;SDS011;6801;53.018;11.560;2022-08-03T04:37:25;4.40;;;2.17;;
13457;SDS011;6801;53.018;11.560;2022-08-03T04:39:58;3.55;;;2.05;;
13457;SDS011;6801;53.018;11.560;2022-08-03T04:42:28;4.07;;;2.00;;
13457;SDS011;6801;53.018;11.560;2022-08-03T04:45:00;3.55;;;1.70;;
13457;SDS011;6801;53.018;11.560;2022-08-03T04:47:31;2.78;;;1.80;;
13457;SDS011;6801;53.018;11.560;2022-08-03T04:49:59;6.80;;;2.07;;
13457;SDS011;6801;53.018;11.560;2022-08-03T04:52:26;5.05;;;2.42;;
13457;SDS011;6801;53.018;11.560;2022-08-03T04:54:53;4.00;;;2.00;;
13457;SDS011;6801;53.018;11.560;2022-08-03T04:57:20;5.60;;;2.13;;
13457;SDS011;6801;53.018;11.560;2022-08-03T04:59:47;5.15;;;2.05;;
13457;SDS011;6801;53.018;11.560;2022-08-03T05:02:19;4.80;;;2.58;;
13457;SDS011;6801;53.018;11.560;2022-08-03T05:04:46;6.28;;;2.85;;
13457;SDS011;6801;53.018;11.560;2022-08-03T05:07:14;3.08;;;1.90;;
13457;SDS011;6801;53.018;11.560;2022-08-03T05:09:42;6.50;;;2.17;;
13457;SDS011;6801;53.018;11.560;2022-08-03T05:12:09;3.92;;;2.00;;
13457;SDS011;6801;53.018;11.560;2022-08-03T05:14:36;3.53;;;2.10;;
13457;SDS011;6801;53.018;11.560;2022-08-03T05:17:03;12.02;;;2.75;;
13457;SDS011;6801;53.018;11.560;2022-08-03T05:19:32;10.52;;;2.17;;
13457;SDS011;6801;53.018;11.560;2022-08-03T05:21:59;4.00;;;1.75;;
13457;SDS011;6801;53.018;11.560;2022-08-03T05:24:27;21.33;;;2.72;;
13457;SDS011;6801;53.018;11.560;2022-08-03T05:26:54;7.20;;;2.60;;
13457;SDS011;6801;53.018;11.560;2022-08-03T05:29:22;4.10;;;2.05;;
13457;SDS011;6801;53.018;11.560;2022-08-03T05:31:49;6.75;;;2.15;;
13457;SDS011;6801;53.018;11.560;2022-08-03T05:34:16;2.80;;;1.98;;
13457;SDS011;6801;53.018;11.560;2022-08-03T05:36:44;3.08;;;1.80;;
13457;SDS011;6801;53.018;11.560;2022-08-03T05:39:11;5.05;;;2.17;;
13457;SDS011;6801;53.018;11.560;2022-08-03T05:41:38;6.28;;;2.05;;
13457;SDS011;6801;53.018;11.560;2022-08-03T05:44:05;5.55;;;1.83;;
13457;SDS011;6801;53.018;11.560;2022-08-03T05:46:32;1.98;;;1.40;;
13457;SDS011;6801;53.018;11.560;2022-08-03T05:48:59;4.28;;;1.60;;
13457;SDS011;6801;53.018;11.560;2022-08-03T05:51:26;3.50;;;1.73;;
13457;SDS011;6801;53.018;11.560;2022-08-03T05:53:54;2.33;;;1.70;;
13457;SDS011;6801;53.018;11.560;2022-08-03T05:56:21;5.93;;;1.60;;
13457;SDS011;6801;53.018;11.560;2022-08-03T05:58:49;1.48;;;1.38;;
13457;SDS011;6801;53.018;11.560;2022-08-03T06:01:17;3.22;;;1.52;;
13457;SDS011;6801;53.018;11.560;2022-08-03T06:03:45;2.55;;;1.20;;
13457;SDS011;6801;53.018;11.560;2022-08-03T06:06:13;4.00;;;1.60;;
13457;SDS011;6801;53.018;11.560;2022-08-03T06:08:40;3.25;;;1.50;;
13457;SDS011;6801;53.018;11.560;2022-08-03T06:11:09;3.67;;;1.58;;
13457;SDS011;6801;53.018;11.560;2022-08-03T06:13:36;2.67;;;1.73;;
13457;SDS011;6801;53.018;11.560;2022-08-03T06:16:04;3.25;;;1.65;;
13457;SDS011;6801;53.018;11.560;2022-08-03T06:18:31;2.90;;;1.52;;
13457;SDS011;6801;53.018;11.560;2022-08-03T06:20:58;5.57;;;1.40;;
13457;SDS011;6801;53.018;11.560;2022-08-03T06:23:26;5.93;;;2.05;;
13457;SDS011;6801;53.018;11.560;2022-08-03T06:25:53;3.15;;;1.80;;
13457;SDS011;6801;53.018;11.560;2022-08-03T06:28:21;4.07;;;1.67;;
13457;SDS011;6801;53.018;11.560;2022-08-03T06:30:48;6.35;;;2.10;;
13457;SDS011;6801;53.018;11.560;2022-08-03T06:33:16;3.90;;;1.77;;
13457;SDS011;6801;53.018;11.560;2022-08-03T06:35:43;2.08;;;1.40;;
13457;SDS011;6801;53.018;11.560;2022-08-03T06:38:10;1.98;;;1.60;;
13457;SDS011;6801;53.018;11.560;2022-08-03T06:40:37;5.65;;;1.65;;
13457;SDS011;6801;53.018;11.560;2022-08-03T06:43:05;3.15;;;1.27;;
13457;SDS011;6801;53.018;11.560;2022-08-03T06:45:34;2.47;;;1.60;;
13457;SDS011;6801;53.018;11.560;2022-08-03T06:48:01;4.30;;;1.80;;
13457;SDS011;6801;53.018;11.560;2022-08-03T06:50:29;5.55;;;1.70;;
13457;SDS011;6801;53.018;11.560;2022-08-03T06:52:56;3.00;;;1.25;;
13457;SDS011;6801;53.018;11.560;2022-08-03T06:55:23;3.90;;;1.70;;
13457;SDS011;6801;53.018;11.560;2022-08-03T06:57:51;3.30;;;1.20;;
13457;SDS011;6801;53.018;11.560;2022-08-03T07:00:18;3.08;;;1.40;;
13457;SDS011;6801;53.018;11.560;2022-08-03T07:02:47;3.00;;;1.17;;
13457;SDS011;6801;53.018;11.560;2022-08-03T07:05:14;2.53;;;1.20;;
13457;SDS011;6801;53.018;11.560;2022-08-03T07:07:41;5.80;;;1.67;;
13457;SDS011;6801;53.018;11.560;2022-08-03T07:10:08;1.65;;;1.10;;
13457;SDS011;6801;53.018;11.560;2022-08-03T07:12:36;4.25;;;1.30;;
13457;SDS011;6801;53.018;11.560;2022-08-03T07:15:04;2.13;;;1.15;;
13457;SDS011;6801;53.018;11.560;2022-08-03T07:17:33;5.28;;;1.33;;
13457;SDS011;6801;53.018;11.560;2022-08-03T07:20:03;1.25;;;1.15;;
13457;SDS011;6801;53.018;11.560;2022-08-03T07:22:31;3.17;;;1.40;;
13457;SDS011;6801;53.018;11.560;2022-08-03T07:24:58;2.92;;;1.20;;
13457;SDS011;6801;53.018;11.560;2022-08-03T07:27:27;5.78;;;1.45;;
13457;SDS011;6801;53.018;11.560;2022-08-03T07:29:54;3.58;;;1.33;;
13457;SDS011;6801;53.018;11.560;2022-08-03T07:32:21;1.50;;;1.10;;
13457;SDS011;6801;53.018;11.560;2022-08-03T07:34:49;2.97;;;1.05;;
13457;SDS011;6801;53.018;11.560;2022-08-03T07:37:17;2.83;;;1.30;;
13457;SDS011;6801;53.018;11.560;2022-08-03T07:39:44;3.10;;;1.58;;
13457;SDS011;6801;53.018;11.560;2022-08-03T07:42:11;4.10;;;1.35;;
13457;SDS011;6801;53.018;11.560;2022-08-03T07:44:38;2.20;;;1.27;;
13457;SDS011;6801;53.018;11.560;2022-08-03T07:47:05;6.65;;;1.77;;
13457;SDS011;6801;53.018;11.560;2022-08-03T07:49:32;4.35;;;1.40;;
13457;SDS011;6801;53.018;11.560;2022-08-03T07:52:04;4.25;;;1.42;;
13457;SDS011;6801;53.018;11.560;2022-08-03T07:54:50;19.40;;;2.33;;
13457;SDS011;6801;53.018;11.560;2022-08-03T07:57:17;3.00;;;1.27;;
13457;SDS011;6801;53.018;11.560;2022-08-03T07:59:44;3.60;;;1.42;;
13457;SDS011;6801;53.018;11.560;2022-08-03T08:02:11;3.45;;;1.52;;
13457;SDS011;6801;53.018;11.560;2022-08-03T08:04:39;3.35;;;1.40;;
13457;SDS011;6801;53.018;11.560;2022-08-03T08:07:06;4.32;;;1.30;;
13457;SDS011;6801;53.018;11.560;2022-08-03T08:09:33;2.00;;;1.25;;
13457;SDS011;6801;53.018;11.560;2022-08-03T08:12:02;5.18;;;1.10;;
13457;SDS011;6801;53.018;11.560;2022-08-03T08:14:29;3.83;;;1.27;;
13457;SDS011;6801;53.018;11.560;2022-08-03T08:16:56;4.63;;;1.30;;
13457;SDS011;6801;53.018;11.560;2022-08-03T08:19:23;3.13;;;1.20;;
13457;SDS011;6801;53.018;11.560;2022-08-03T08:21:50;2.05;;;1.23;;
13457;SDS011;6801;53.018;11.560;2022-08-03T08:24:17;2.35;;;1.38;;
13457;SDS011;6801;53.018;11.560;2022-08-03T08:26:44;3.08;;;1.30;;
13457;SDS011;6801;53.018;11.560;2022-08-03T08:29:13;3.05;;;1.20;;
13457;SDS011;6801;53.018;11.560;2022-08-03T08:31:40;1.60;;;1.08;;
13457;SDS011;6801;53.018;11.560;2022-08-03T08:34:07;2.75;;;1.60;;
13457;SDS011;6801;53.018;11.560;2022-08-03T08:36:34;2.90;;;1.35;;
13457;SDS011;6801;53.018;11.560;2022-08-03T08:39:01;1.98;;;1.42;;
13457;SDS011;6801;53.018;11.560;2022-08-03T08:41:29;2.80;;;1.30;;
13457;SDS011;6801;53.018;11.560;2022-08-03T08:43:58;4.50;;;1.10;;
13457;SDS011;6801;53.018;11.560;2022-08-03T08:46:26;4.32;;;1.20;;
13457;SDS011;6801;53.018;11.560;2022-08-03T08:48:57;2.72;;;1.20;;
13457;SDS011;6801;53.018;11.560;2022-08-03T08:51:26;3.00;;;1.08;;
13457;SDS011;6801;53.018;11.560;2022-08-03T08:53:55;4.88;;;1.15;;
13457;SDS011;6801;53.018;11.560;2022-08-03T08:56:26;1.83;;;1.05;;
13457;SDS011;6801;53.018;11.560;2022-08-03T08:58:55;3.65;;;1.30;;
13457;SDS011;6801;53.018;11.560;2022-08-03T09:01:24;2.55;;;1.25;;
13457;SDS011;6801;53.018;11.560;2022-08-03T09:03:53;3.00;;;1.00;;
13457;SDS011;6801;53.018;11.560;2022-08-03T09:06:20;3.88;;;1.35;;
13457;SDS011;6801;53.018;11.560;2022-08-03T09:08:48;5.32;;;1.45;;
13457;SDS011;6801;53.018;11.560;2022-08-03T09:11:16;3.08;;;1.35;;
13457;SDS011;6801;53.018;11.560;2022-08-03T09:13:47;4.88;;;1.38;;
13457;SDS011;6801;53.018;11.560;2022-08-03T09:16:15;5.72;;;1.50;;
13457;SDS011;6801;53.018;11.560;2022-08-03T09:18:45;3.42;;;1.40;;
13457;SDS011;6801;53.018;11.560;2022-08-03T09:21:14;3.05;;;1.20;;
13457;SDS011;6801;53.018;11.560;2022-08-03T09:23:43;2.15;;;1.23;;
13457;SDS011;6801;53.018;11.560;2022-08-03T09:26:11;3.08;;;1.35;;
13457;SDS011;6801;53.018;11.560;2022-08-03T09:28:45;4.07;;;1.10;;
13457;SDS011;6801;53.018;11.560;2022-08-03T09:31:12;3.53;;;1.20;;
13457;SDS011;6801;53.018;11.560;2022-08-03T09:33:46;1.85;;;1.08;;
13457;SDS011;6801;53.018;11.560;2022-08-03T09:36:32;1.63;;;1.30;;
13457;SDS011;6801;53.018;11.560;2022-08-03T09:39:00;2.55;;;0.95;;
13457;SDS011;6801;53.018;11.560;2022-08-03T09:41:30;3.33;;;0.93;;
13457;SDS011;6801;53.018;11.560;2022-08-03T09:43:58;3.72;;;1.10;;
13457;SDS011;6801;53.018;11.560;2022-08-03T09:46:25;5.25;;;1.27;;
13457;SDS011;6801;53.018;11.560;2022-08-03T09:49:09;3.72;;;1.20;;
13457;SDS011;6801;53.018;11.560;2022-08-03T09:51:36;2.85;;;1.30;;
13457;SDS011;6801;53.018;11.560;2022-08-03T09:54:04;2.63;;;0.95;;
13457;SDS011;6801;53.018;11.560;2022-08-03T09:56:38;3.47;;;1.40;;
13457;SDS011;6801;53.018;11.560;2022-08-03T09:59:07;1.95;;;0.95;;
13457;SDS011;6801;53.018;11.560;2022-08-03T10:01:34;10.93;;;1.58;;
13457;SDS011;6801;53.018;11.560;2022-08-03T10:04:03;5.07;;;1.17;;
13457;SDS011;6801;53.018;11.560;2022-08-03T10:06:32;3.90;;;0.98;;
13457;SDS011;6801;53.018;11.560;2022-08-03T10:09:06;4.60;;;1.40;;
13457;SDS011;6801;53.018;11.560;2022-08-03T10:11:34;2.42;;;0.98;;
13457;SDS011;6801;53.018;11.560;2022-08-03T10:14:02;2.08;;;1.20;;
13457;SDS011;6801;53.018;11.560;2022-08-03T10:16:33;1.83;;;0.95;;
13457;SDS011;6801;53.018;11.560;2022-08-03T10:19:02;3.72;;;1.15;;
13457;SDS011;6801;53.018;11.560;2022-08-03T10:21:32;2.17;;;1.10;;
13457;SDS011;6801;53.018;11.560;2022-08-03T10:24:02;3.20;;;1.20;;
13457;SDS011;6801;53.018;11.560;2022-08-03T10:26:31;5.18;;;1.20;;
13457;SDS011;6801;53.018;11.560;2022-08-03T10:28:59;2.95;;;1.40;;
13457;SDS011;6801;53.018;11.560;2022-08-03T10:31:30;3.55;;;1.38;;
13457;SDS011;6801;53.018;11.560;2022-08-03T10:34:04;2.75;;;1.13;;
13457;SDS011;6801;53.018;11.560;2022-08-03T10:36:38;2.00;;;1.02;;
13457;SDS011;6801;53.018;11.560;2022-08-03T10:39:06;2.17;;;1.23;;
13457;SDS011;6801;53.018;11.560;2022-08-03T10:41:37;3.13;;;1.30;;
13457;SDS011;6801;53.018;11.560;2022-08-03T10:44:07;2.05;;;1.10;;
13457;SDS011;6801;53.018;11.560;2022-08-03T10:46:37;4.63;;;1.60;;
13457;SDS011;6801;53.018;11.560;2022-08-03T10:49:05;2.47;;;1.23;;
13457;SDS011;6801;53.018;11.560;2022-08-03T10:51:33;2.33;;;1.33;;
13457;SDS011;6801;53.018;11.560;2022-08-03T10:54:02;3.10;;;1.45;;
13457;SDS011;6801;53.018;11.560;2022-08-03T10:56:39;2.20;;;1.27;;
13457;SDS011;6801;53.018;11.560;2022-08-03T11:07:50;3.45;;;0.88;;
13457;SDS011;6801;53.018;11.560;2022-08-03T11:10:54;6.00;;;1.52;;
13457;SDS011;6801;53.018;11.560;2022-08-03T11:13:23;1.52;;;1.00;;
13457;SDS011;6801;53.018;11.560;2022-08-03T11:15:53;1.48;;;0.95;;
13457;SDS011;6801;53.018;11.560;2022-08-03T11:20:50;3.50;;;0.93;;
13457;SDS011;6801;53.018;11.560;2022-08-03T11:23:19;2.33;;;1.10;;
13457;SDS011;6801;53.018;11.560;2022-08-03T11:26:10;3.83;;;1.00;;
13457;SDS011;6801;53.018;11.560;2022-08-03T11:28:42;3.00;;;1.02;;
13457;SDS011;6801;53.018;11.560;2022-08-03T11:34:10;3.72;;;1.10;;
13457;SDS011;6801;53.018;11.560;2022-08-03T11:39:38;5.25;;;0.85;;
13457;SDS011;6801;53.018;11.560;2022-08-03T11:45:11;1.67;;;0.73;;
13457;SDS011;6801;53.018;11.560;2022-08-03T11:47:39;2.10;;;0.90;;
13457;SDS011;6801;53.018;11.560;2022-08-03T11:52:36;1.67;;;0.77;;
13457;SDS011;6801;53.018;11.560;2022-08-03T11:55:09;0.93;;;0.73;;
13457;SDS011;6801;53.018;11.560;2022-08-03T11:57:41;2.75;;;0.90;;
13457;SDS011;6801;53.018;11.560;2022-08-03T12:03:00;4.00;;;0.80;;
13457;SDS011;6801;53.018;11.560;2022-08-03T12:05:39;2.78;;;0.90;;
13457;SDS011;6801;53.018;11.560;2022-08-03T12:08:09;1.25;;;0.88;;
13457;SDS011;6801;53.018;11.560;2022-08-03T12:13:07;3.30;;;0.93;;
13457;SDS011;6801;53.018;11.560;2022-08-03T12:15:34;1.63;;;0.63;;
13457;SDS011;6801;53.018;11.560;2022-08-03T12:18:07;2.88;;;0.90;;
13457;SDS011;6801;53.018;11.560;2022-08-03T12:20:39;8.00;;;0.90;;
13457;SDS011;6801;53.018;11.560;2022-08-03T12:23:07;3.33;;;1.13;;
13457;SDS011;6801;53.018;11.560;2022-08-03T12:25:35;2.78;;;1.08;;
13457;SDS011;6801;53.018;11.560;2022-08-03T12:28:09;4.35;;;0.80;;
13457;SDS011;6801;53.018;11.560;2022-08-03T12:30:38;1.98;;;0.90;;
13457;SDS011;6801;53.018;11.560;2022-08-03T12:33:16;4.32;;;0.82;;
13457;SDS011;6801;53.018;11.560;2022-08-03T12:35:46;6.28;;;0.70;;
13457;SDS011;6801;53.018;11.560;2022-08-03T12:38:18;1.85;;;0.95;;
13457;SDS011;6801;53.018;11.560;2022-08-03T12:40:57;2.88;;;0.80;;
13457;SDS011;6801;53.018;11.560;2022-08-03T12:43:27;1.48;;;0.80;;
13457;SDS011;6801;53.018;11.560;2022-08-03T12:46:10;1.20;;;0.43;;
13457;SDS011;6801;53.018;11.560;2022-08-03T12:51:23;2.97;;;0.90;;
13457;SDS011;6801;53.018;11.560;2022-08-03T12:53:52;1.95;;;0.80;;
13457;SDS011;6801;53.018;11.560;2022-08-03T12:56:19;4.35;;;0.90;;
13457;SDS011;6801;53.018;11.560;2022-08-03T12:58:47;3.40;;;0.68;;
13457;SDS011;6801;53.018;11.560;2022-08-03T13:01:15;1.48;;;0.63;;
13457;SDS011;6801;53.018;11.560;2022-08-03T13:03:43;1.95;;;0.63;;
13457;SDS011;6801;53.018;11.560;2022-08-03T13:06:11;2.20;;;0.87;;
13457;SDS011;6801;53.018;11.560;2022-08-03T13:08:39;3.33;;;0.50;;
13457;SDS011;6801;53.018;11.560;2022-08-03T13:11:17;3.38;;;1.20;;
13457;SDS011;6801;53.018;11.560;2022-08-03T13:13:44;2.75;;;0.80;;
13457;SDS011;6801;53.018;11.560;2022-08-03T13:16:13;2.03;;;0.52;;
13457;SDS011;6801;53.018;11.560;2022-08-03T13:18:40;1.88;;;0.65;;
13457;SDS011;6801;53.018;11.560;2022-08-03T13:21:07;9.45;;;0.90;;
13457;SDS011;6801;53.018;11.560;2022-08-03T13:23:34;3.70;;;0.70;;
13457;SDS011;6801;53.018;11.560;2022-08-03T13:26:01;2.85;;;0.60;;
13457;SDS011;6801;53.018;11.560;2022-08-03T13:28:28;1.10;;;0.52;;
13457;SDS011;6801;53.018;11.560;2022-08-03T13:30:56;2.58;;;1.00;;
13457;SDS011;6801;53.018;11.560;2022-08-03T13:33:23;1.92;;;0.70;;
13457;SDS011;6801;53.018;11.560;2022-08-03T13:35:52;2.95;;;0.68;;
13457;SDS011;6801;53.018;11.560;2022-08-03T13:38:19;3.25;;;0.50;;
13457;SDS011;6801;53.018;11.560;2022-08-03T13:40:46;2.38;;;0.73;;
13457;SDS011;6801;53.018;11.560;2022-08-03T13:43:13;3.17;;;0.75;;
13457;SDS011;6801;53.018;11.560;2022-08-03T13:45:40;2.25;;;0.60;;
13457;SDS011;6801;53.018;11.560;2022-08-03T13:48:08;2.00;;;0.60;;
13457;SDS011;6801;53.018;11.560;2022-08-03T13:50:35;4.63;;;0.70;;
13457;SDS011;6801;53.018;11.560;2022-08-03T13:53:03;1.33;;;0.80;;
13457;SDS011;6801;53.018;11.560;2022-08-03T13:55:30;2.85;;;0.70;;
13457;SDS011;6801;53.018;11.560;2022-08-03T13:57:57;7.22;;;0.90;;
13457;SDS011;6801;53.018;11.560;2022-08-03T14:00:24;4.35;;;0.90;;
13457;SDS011;6801;53.018;11.560;2022-08-03T14:02:51;2.47;;;0.80;;
13457;SDS011;6801;53.018;11.560;2022-08-03T14:05:20;1.98;;;0.50;;
13457;SDS011;6801;53.018;11.560;2022-08-03T14:07:47;4.53;;;0.63;;
13457;SDS011;6801;53.018;11.560;2022-08-03T14:10:14;3.22;;;0.68;;
13457;SDS011;6801;53.018;11.560;2022-08-03T14:12:41;2.85;;;0.80;;
13457;SDS011;6801;53.018;11.560;2022-08-03T14:15:09;4.80;;;0.77;;
13457;SDS011;6801;53.018;11.560;2022-08-03T14:17:37;2.92;;;0.70;;
13457;SDS011;6801;53.018;11.560;2022-08-03T14:20:05;3.00;;;0.80;;
13457;SDS011;6801;53.018;11.560;2022-08-03T14:22:34;2.65;;;0.60;;
13457;SDS011;6801;53.018;11.560;2022-08-03T14:25:01;3.85;;;0.90;;
13457;SDS011;6801;53.018;11.560;2022-08-03T14:27:28;2.50;;;0.70;;
13457;SDS011;6801;53.018;11.560;2022-08-03T14:29:55;1.88;;;1.10;;
13457;SDS011;6801;53.018;11.560;2022-08-03T14:32:24;2.95;;;0.70;;
13457;SDS011;6801;53.018;11.560;2022-08-03T14:34:51;6.63;;;1.45;;
13457;SDS011;6801;53.018;11.560;2022-08-03T14:37:19;4.00;;;1.00;;
13457;SDS011;6801;53.018;11.560;2022-08-03T14:39:47;3.05;;;0.93;;
13457;SDS011;6801;53.018;11.560;2022-08-03T14:42:14;1.70;;;1.02;;
13457;SDS011;6801;53.018;11.560;2022-08-03T14:44:41;4.28;;;0.80;;
13457;SDS011;6801;53.018;11.560;2022-08-03T14:47:08;3.45;;;0.90;;
13457;SDS011;6801;53.018;11.560;2022-08-03T14:49:35;2.45;;;0.98;;
13457;SDS011;6801;53.018;11.560;2022-08-03T14:52:03;2.50;;;1.10;;
13457;SDS011;6801;53.018;11.560;2022-08-03T14:54:30;3.60;;;0.68;;
13457;SDS011;6801;53.018;11.560;2022-08-03T14:56:59;4.72;;;0.70;;
13457;SDS011;6801;53.018;11.560;2022-08-03T14:59:26;2.97;;;0.85;;
13457;SDS011;6801;53.018;11.560;2022-08-03T15:01:53;4.30;;;1.08;;
13457;SDS011;6801;53.018;11.560;2022-08-03T15:04:20;0.93;;;0.73;;
13457;SDS011;6801;53.018;11.560;2022-08-03T15:06:47;3.10;;;1.00;;
13457;SDS011;6801;53.018;11.560;2022-08-03T15:09:14;2.90;;;0.93;;
13457;SDS011;6801;53.018;11.560;2022-08-03T15:11:41;5.38;;;0.90;;
13457;SDS011;6801;53.018;11.560;2022-08-03T15:14:10;7.30;;;1.35;;
13457;SDS011;6801;53.018;11.560;2022-08-03T15:16:37;3.05;;;0.77;;
13457;SDS011;6801;53.018;11.560;2022-08-03T15:19:04;2.72;;;1.00;;
13457;SDS011;6801;53.018;11.560;2022-08-03T15:21:31;1.20;;;0.52;;
13457;SDS011;6801;53.018;11.560;2022-08-03T15:23:58;1.85;;;0.70;;
13457;SDS011;6801;53.018;11.560;2022-08-03T15:26:25;3.38;;;0.80;;
13457;SDS011;6801;53.018;11.560;2022-08-03T15:28:51;1.50;;;0.60;;
13457;SDS011;6801;53.018;11.560;2022-08-03T15:31:23;3.85;;;0.60;;
13457;SDS011;6801;53.018;11.560;2022-08-03T15:33:50;2.08;;;0.52;;
13457;SDS011;6801;53.018;11.560;2022-08-03T15:36:17;4.13;;;0.80;;
13457;SDS011;6801;53.018;11.560;2022-08-03T15:38:45;2.22;;;0.63;;
13457;SDS011;6801;53.018;11.560;2022-08-03T15:41:12;2.50;;;0.80;;
13457;SDS011;6801;53.018;11.560;2022-08-03T15:43:40;1.95;;;0.70;;